sensor_id;sensor_type;location;lat;lon;timestamp;pressure;altitude;pressure_sealevel;temperature;humidity
18500;BME280;9379;52.134;11.576;2023-04-22T00:01:07;100657.31;;;16.23;62.95
18500;BME280;9379;52.134;11.576;2023-04-22T00:03:34;100652.25;;;16.36;63.11
18500;BME280;9379;52.134;11.576;2023-04-22T00:06:01;100653.16;;;15.96;63.60
18500;BME280;9379;52.134;11.576;2023-04-22T00:08:28;100644.97;;;15.89;63.67
18500;BME280;9379;52.134;11.576;2023-04-22T00:10:56;100632.72;;;15.62;64.12
18500;BME280;9379;52.134;11.576;2023-04-22T00:13:24;100637.94;;;15.88;63.83
18500;BME280;9379;52.134;11.576;2023-04-22T00:15:50;100634.72;;;15.60;64.49
18500;BME280;9379;52.134;11.576;2023-04-22T00:18:17;100631.22;;;15.68;64.71
18500;BME280;9379;52.134;11.576;2023-04-22T00:20:44;100632.72;;;15.70;64.37
18500;BME280;9379;52.134;11.576;2023-04-22T00:23:11;100632.03;;;16.01;64.41
18500;BME280;9379;52.134;11.576;2023-04-22T00:25:39;100624.84;;;15.93;63.90
18500;BME280;9379;52.134;11.576;2023-04-22T00:28:07;100629.72;;;15.90;63.91
18500;BME280;9379;52.134;11.576;2023-04-22T00:30:34;100623.03;;;15.78;64.46
18500;BME280;9379;52.134;11.576;2023-04-22T00:33:01;100618.59;;;16.09;63.62
18500;BME280;9379;52.134;11.576;2023-04-22T00:35:28;100604.09;;;15.71;63.66
18500;BME280;9379;52.134;11.576;2023-04-22T00:37:55;100589.34;;;15.91;63.68
18500;BME280;9379;52.134;11.576;2023-04-22T00:40:22;100595.22;;;15.87;63.55
18500;BME280;9379;52.134;11.576;2023-04-22T00:43:16;100615.44;;;15.97;63.64
18500;BME280;9379;52.134;11.576;2023-04-22T00:45:44;100617.97;;;15.91;64.23
18500;BME280;9379;52.134;11.576;2023-04-22T00:48:12;100616.09;;;16.16;63.95
18500;BME280;9379;52.134;11.576;2023-04-22T00:50:39;100610.13;;;15.73;64.95
18500;BME280;9379;52.134;11.576;2023-04-22T00:53:06;100608.44;;;15.88;63.82
18500;BME280;9379;52.134;11.576;2023-04-22T00:55:33;100604.09;;;15.87;63.99
18500;BME280;9379;52.134;11.576;2023-04-22T00:58:00;100598.03;;;16.01;64.19
18500;BME280;9379;52.134;11.576;2023-04-22T01:00:29;100605.06;;;16.02;64.34
18500;BME280;9379;52.134;11.576;2023-04-22T01:02:56;100599.38;;;15.73;66.14
18500;BME280;9379;52.134;11.576;2023-04-22T01:05:23;100594.38;;;15.62;65.97
18500;BME280;9379;52.134;11.576;2023-04-22T01:07:51;100601.19;;;15.97;64.35
18500;BME280;9379;52.134;11.576;2023-04-22T01:10:17;100601.06;;;15.74;65.08
18500;BME280;9379;52.134;11.576;2023-04-22T01:12:44;100596.38;;;15.52;66.46
18500;BME280;9379;52.134;11.576;2023-04-22T01:15:11;100588.31;;;15.35;67.08
18500;BME280;9379;52.134;11.576;2023-04-22T01:17:40;100593.88;;;15.42;67.00
18500;BME280;9379;52.134;11.576;2023-04-22T01:20:07;100578.44;;;15.85;64.92
18500;BME280;9379;52.134;11.576;2023-04-22T01:22:40;100594.22;;;15.71;65.98
18500;BME280;9379;52.134;11.576;2023-04-22T01:25:09;100595.03;;;15.56;67.40
18500;BME280;9379;52.134;11.576;2023-04-22T01:27:37;100587.34;;;15.44;66.83
18500;BME280;9379;52.134;11.576;2023-04-22T01:30:05;100588.84;;;15.71;65.90
18500;BME280;9379;52.134;11.576;2023-04-22T01:32:32;100597.31;;;14.94;68.39
18500;BME280;9379;52.134;11.576;2023-04-22T01:35:00;100570.84;;;14.91;68.21
18500;BME280;9379;52.134;11.576;2023-04-22T01:37:27;100588.72;;;14.74;68.75
18500;BME280;9379;52.134;11.576;2023-04-22T01:39:54;100603.94;;;14.39;70.55
18500;BME280;9379;52.134;11.576;2023-04-22T01:42:24;100591.25;;;14.83;69.93
18500;BME280;9379;52.134;11.576;2023-04-22T01:44:50;100587.44;;;15.02;69.39
18500;BME280;9379;52.134;11.576;2023-04-22T01:47:17;100580.13;;;15.53;66.09
18500;BME280;9379;52.134;11.576;2023-04-22T01:49:44;100584.13;;;15.16;67.62
18500;BME280;9379;52.134;11.576;2023-04-22T01:52:12;100584.59;;;14.96;67.39
18500;BME280;9379;52.134;11.576;2023-04-22T01:54:39;100578.22;;;15.05;67.57
18500;BME280;9379;52.134;11.576;2023-04-22T01:57:08;100578.09;;;15.14;68.10
18500;BME280;9379;52.134;11.576;2023-04-22T01:59:37;100582.44;;;15.15;67.99
18500;BME280;9379;52.134;11.576;2023-04-22T02:02:04;100580.38;;;14.93;70.06
18500;BME280;9379;52.134;11.576;2023-04-22T02:04:30;100578.94;;;15.23;67.14
18500;BME280;9379;52.134;11.576;2023-04-22T02:06:57;100582.50;;;15.40;66.29
18500;BME280;9379;52.134;11.576;2023-04-22T02:09:24;100572.63;;;15.40;66.59
18500;BME280;9379;52.134;11.576;2023-04-22T02:11:51;100580.72;;;14.82;68.95
18500;BME280;9379;52.134;11.576;2023-04-22T02:14:17;100575.97;;;14.59;69.77
18500;BME280;9379;52.134;11.576;2023-04-22T02:16:46;100580.06;;;14.88;69.51
18500;BME280;9379;52.134;11.576;2023-04-22T02:19:13;100570.69;;;14.92;68.77
18500;BME280;9379;52.134;11.576;2023-04-22T02:21:40;100564.84;;;14.88;68.29
18500;BME280;9379;52.134;11.576;2023-04-22T02:24:07;100564.66;;;14.90;68.23
18500;BME280;9379;52.134;11.576;2023-04-22T02:26:34;100573.97;;;14.27;70.07
18500;BME280;9379;52.134;11.576;2023-04-22T02:29:01;100569.16;;;14.39;71.28
18500;BME280;9379;52.134;11.576;2023-04-22T02:31:28;100570.59;;;14.51;71.07
18500;BME280;9379;52.134;11.576;2023-04-22T02:33:56;100569.22;;;14.98;69.10
18500;BME280;9379;52.134;11.576;2023-04-22T02:36:23;100564.50;;;14.83;69.20
18500;BME280;9379;52.134;11.576;2023-04-22T02:38:52;100564.72;;;14.48;70.64
18500;BME280;9379;52.134;11.576;2023-04-22T02:41:19;100559.69;;;14.45;72.03
18500;BME280;9379;52.134;11.576;2023-04-22T02:43:45;100563.72;;;14.49;71.35
18500;BME280;9379;52.134;11.576;2023-04-22T02:46:12;100571.75;;;14.57;70.41
18500;BME280;9379;52.134;11.576;2023-04-22T02:48:40;100566.41;;;14.23;70.84
18500;BME280;9379;52.134;11.576;2023-04-22T02:51:08;100562.28;;;14.28;70.59
18500;BME280;9379;52.134;11.576;2023-04-22T02:53:35;100551.06;;;13.99;71.28
18500;BME280;9379;52.134;11.576;2023-04-22T02:56:03;100549.94;;;14.36;69.79
18500;BME280;9379;52.134;11.576;2023-04-22T02:58:34;100558.97;;;14.43;70.33
18500;BME280;9379;52.134;11.576;2023-04-22T03:01:01;100564.81;;;14.04;70.48
18500;BME280;9379;52.134;11.576;2023-04-22T03:03:28;100570.06;;;14.22;71.02
18500;BME280;9379;52.134;11.576;2023-04-22T03:05:56;100574.44;;;13.97;71.16
18500;BME280;9379;52.134;11.576;2023-04-22T03:08:24;100573.94;;;13.93;71.39
18500;BME280;9379;52.134;11.576;2023-04-22T03:10:51;100560.94;;;13.98;72.27
18500;BME280;9379;52.134;11.576;2023-04-22T03:13:18;100580.59;;;14.23;71.50
18500;BME280;9379;52.134;11.576;2023-04-22T03:15:44;100569.34;;;13.78;71.69
18500;BME280;9379;52.134;11.576;2023-04-22T03:18:11;100576.97;;;14.24;71.54
18500;BME280;9379;52.134;11.576;2023-04-22T03:20:38;100564.03;;;14.46;71.40
18500;BME280;9379;52.134;11.576;2023-04-22T03:23:05;100555.16;;;14.45;70.73
18500;BME280;9379;52.134;11.576;2023-04-22T03:25:34;100563.34;;;14.10;71.51
18500;BME280;9379;52.134;11.576;2023-04-22T03:28:01;100553.13;;;14.39;71.56
18500;BME280;9379;52.134;11.576;2023-04-22T03:30:28;100555.66;;;14.07;72.22
18500;BME280;9379;52.134;11.576;2023-04-22T03:32:55;100544.69;;;14.52;70.56
18500;BME280;9379;52.134;11.576;2023-04-22T03:35:22;100533.41;;;14.40;71.09
18500;BME280;9379;52.134;11.576;2023-04-22T03:37:49;100548.81;;;14.12;71.32
18500;BME280;9379;52.134;11.576;2023-04-22T03:40:16;100546.22;;;14.28;70.81
18500;BME280;9379;52.134;11.576;2023-04-22T03:42:48;100520.81;;;14.24;70.73
18500;BME280;9379;52.134;11.576;2023-04-22T03:45:16;100516.16;;;14.26;70.02
18500;BME280;9379;52.134;11.576;2023-04-22T03:47:43;100542.16;;;14.16;71.30
18500;BME280;9379;52.134;11.576;2023-04-22T03:50:10;100545.44;;;14.36;71.70
18500;BME280;9379;52.134;11.576;2023-04-22T03:52:37;100549.28;;;14.08;72.05
18500;BME280;9379;52.134;11.576;2023-04-22T03:55:04;100548.91;;;13.94;72.79
18500;BME280;9379;52.134;11.576;2023-04-22T03:57:31;100542.97;;;13.83;72.62
18500;BME280;9379;52.134;11.576;2023-04-22T03:59:59;100546.81;;;13.80;73.21
18500;BME280;9379;52.134;11.576;2023-04-22T04:02:26;100534.38;;;13.97;72.32
18500;BME280;9379;52.134;11.576;2023-04-22T04:04:53;100528.88;;;13.98;72.95
18500;BME280;9379;52.134;11.576;2023-04-22T04:07:36;100536.50;;;14.19;72.77
18500;BME280;9379;52.134;11.576;2023-04-22T04:10:04;100544.16;;;13.80;73.41
18500;BME280;9379;52.134;11.576;2023-04-22T04:12:33;100544.31;;;13.79;73.48
18500;BME280;9379;52.134;11.576;2023-04-22T04:15:06;100533.81;;;13.85;73.20
18500;BME280;9379;52.134;11.576;2023-04-22T04:17:48;100537.75;;;13.73;73.56
18500;BME280;9379;52.134;11.576;2023-04-22T04:20:15;100529.16;;;13.61;73.16
18500;BME280;9379;52.134;11.576;2023-04-22T04:22:41;100519.84;;;13.99;73.56
18500;BME280;9379;52.134;11.576;2023-04-22T04:25:09;100519.84;;;13.91;72.64
18500;BME280;9379;52.134;11.576;2023-04-22T04:27:36;100540.66;;;13.88;73.92
18500;BME280;9379;52.134;11.576;2023-04-22T04:30:06;100532.94;;;14.11;73.43
18500;BME280;9379;52.134;11.576;2023-04-22T04:32:34;100543.28;;;14.06;73.16
18500;BME280;9379;52.134;11.576;2023-04-22T04:35:01;100537.22;;;13.95;73.66
18500;BME280;9379;52.134;11.576;2023-04-22T04:37:27;100542.50;;;14.13;73.54
18500;BME280;9379;52.134;11.576;2023-04-22T04:39:54;100542.94;;;13.75;73.98
18500;BME280;9379;52.134;11.576;2023-04-22T04:42:23;100540.31;;;13.83;73.70
18500;BME280;9379;52.134;11.576;2023-04-22T04:44:50;100548.69;;;13.62;73.93
18500;BME280;9379;52.134;11.576;2023-04-22T04:47:19;100539.97;;;13.78;73.98
18500;BME280;9379;52.134;11.576;2023-04-22T04:49:46;100541.09;;;14.01;73.54
18500;BME280;9379;52.134;11.576;2023-04-22T04:52:14;100544.44;;;13.77;73.25
18500;BME280;9379;52.134;11.576;2023-04-22T04:54:41;100544.22;;;13.45;74.49
18500;BME280;9379;52.134;11.576;2023-04-22T04:57:08;100548.25;;;13.49;74.94
18500;BME280;9379;52.134;11.576;2023-04-22T04:59:35;100547.50;;;13.82;74.38
18500;BME280;9379;52.134;11.576;2023-04-22T05:02:01;100550.03;;;13.66;73.68
18500;BME280;9379;52.134;11.576;2023-04-22T05:04:29;100543.25;;;13.71;73.95
18500;BME280;9379;52.134;11.576;2023-04-22T05:06:56;100549.91;;;13.93;72.81
18500;BME280;9379;52.134;11.576;2023-04-22T05:09:23;100557.84;;;13.59;74.11
18500;BME280;9379;52.134;11.576;2023-04-22T05:11:50;100560.59;;;13.50;74.29
18500;BME280;9379;52.134;11.576;2023-04-22T05:14:17;100559.41;;;13.44;74.21
18500;BME280;9379;52.134;11.576;2023-04-22T05:16:43;100563.69;;;13.19;74.68
18500;BME280;9379;52.134;11.576;2023-04-22T05:19:10;100565.16;;;13.31;74.44
18500;BME280;9379;52.134;11.576;2023-04-22T05:21:38;100550.25;;;13.29;74.51
18500;BME280;9379;52.134;11.576;2023-04-22T05:24:06;100559.44;;;13.70;74.02
18500;BME280;9379;52.134;11.576;2023-04-22T05:26:33;100557.41;;;13.46;73.74
18500;BME280;9379;52.134;11.576;2023-04-22T05:29:02;100561.59;;;13.49;74.31
18500;BME280;9379;52.134;11.576;2023-04-22T05:31:29;100559.19;;;13.20;74.72
18500;BME280;9379;52.134;11.576;2023-04-22T05:33:56;100564.78;;;13.17;74.54
18500;BME280;9379;52.134;11.576;2023-04-22T05:36:23;100568.34;;;13.35;74.56
18500;BME280;9379;52.134;11.576;2023-04-22T05:38:52;100566.94;;;13.49;74.43
18500;BME280;9379;52.134;11.576;2023-04-22T05:41:19;100571.19;;;13.59;73.64
18500;BME280;9379;52.134;11.576;2023-04-22T05:43:46;100562.00;;;13.36;74.16
18500;BME280;9379;52.134;11.576;2023-04-22T05:46:13;100560.13;;;13.54;73.44
18500;BME280;9379;52.134;11.576;2023-04-22T05:48:40;100563.09;;;13.25;73.72
18500;BME280;9379;52.134;11.576;2023-04-22T05:51:06;100558.75;;;13.68;73.08
18500;BME280;9379;52.134;11.576;2023-04-22T05:53:33;100560.16;;;13.80;72.99
18500;BME280;9379;52.134;11.576;2023-04-22T05:56:01;100556.44;;;14.33;71.87
18500;BME280;9379;52.134;11.576;2023-04-22T05:58:31;100541.16;;;14.17;71.68
18500;BME280;9379;52.134;11.576;2023-04-22T06:00:59;100541.13;;;14.94;70.11
18500;BME280;9379;52.134;11.576;2023-04-22T06:03:25;100536.75;;;14.84;69.47
18500;BME280;9379;52.134;11.576;2023-04-22T06:05:52;100526.78;;;16.15;66.61
18500;BME280;9379;52.134;11.576;2023-04-22T06:08:19;100521.44;;;17.98;60.95
18500;BME280;9379;52.134;11.576;2023-04-22T06:10:46;100525.09;;;17.68;62.41
18500;BME280;9379;52.134;11.576;2023-04-22T06:13:14;100530.44;;;17.91;61.20
18500;BME280;9379;52.134;11.576;2023-04-22T06:15:41;100535.22;;;17.43;63.55
18500;BME280;9379;52.134;11.576;2023-04-22T06:18:08;100522.34;;;17.91;61.91
18500;BME280;9379;52.134;11.576;2023-04-22T06:20:35;100533.25;;;17.60;61.66
18500;BME280;9379;52.134;11.576;2023-04-22T06:23:02;100548.28;;;17.08;63.85
18500;BME280;9379;52.134;11.576;2023-04-22T06:25:29;100540.81;;;17.18;64.53
18500;BME280;9379;52.134;11.576;2023-04-22T06:27:57;100543.34;;;17.35;62.95
18500;BME280;9379;52.134;11.576;2023-04-22T06:30:25;100547.59;;;17.67;63.09
18500;BME280;9379;52.134;11.576;2023-04-22T06:32:52;100532.69;;;16.42;65.49
18500;BME280;9379;52.134;11.576;2023-04-22T06:35:19;100537.06;;;17.05;64.50
18500;BME280;9379;52.134;11.576;2023-04-22T06:37:46;100532.63;;;16.89;64.30
18500;BME280;9379;52.134;11.576;2023-04-22T06:40:13;100527.34;;;17.04;64.83
18500;BME280;9379;52.134;11.576;2023-04-22T06:42:40;100531.44;;;16.60;64.98
18500;BME280;9379;52.134;11.576;2023-04-22T06:45:08;100524.47;;;16.43;66.51
18500;BME280;9379;52.134;11.576;2023-04-22T06:47:38;100527.09;;;16.90;65.38
18500;BME280;9379;52.134;11.576;2023-04-22T06:50:06;100530.53;;;17.22;65.07
18500;BME280;9379;52.134;11.576;2023-04-22T06:52:33;100528.50;;;17.85;62.37
18500;BME280;9379;52.134;11.576;2023-04-22T06:55:00;100538.31;;;17.17;64.70
18500;BME280;9379;52.134;11.576;2023-04-22T06:57:28;100539.13;;;17.40;64.36
18500;BME280;9379;52.134;11.576;2023-04-22T06:59:54;100514.25;;;16.78;65.80
18500;BME280;9379;52.134;11.576;2023-04-22T07:02:21;100527.31;;;16.81;66.13
18500;BME280;9379;52.134;11.576;2023-04-22T07:04:49;100526.78;;;17.31;65.23
18500;BME280;9379;52.134;11.576;2023-04-22T07:07:17;100524.81;;;17.25;64.77
18500;BME280;9379;52.134;11.576;2023-04-22T09:56:49;100438.72;;;21.40;59.84
18500;BME280;9379;52.134;11.576;2023-04-22T09:59:21;100433.50;;;21.51;58.90
18500;BME280;9379;52.134;11.576;2023-04-22T10:01:49;100407.34;;;21.97;59.59
